Oklahoma Logo

Shawnee, OK Single Family Real Estate Listings

91 Total Real Estate Listings * Click on table heading to sort
Date Posted Property Type Style Address Price Living Area Lot Size Price/Sq Ft.
2018-03-24 Single Family 49210 Macarthur Shawnee, OK 74804 $150,000 1,216 sq. ft. 435,600 sq. ft. $123
2018-03-23 Single Family Traditional 505 Louisa Shawnee, OK 74801 $65,000 816 sq. ft. 7,000 sq. ft. $80
2018-03-22 Single Family Traditional 1131 Quail Hollow Road Shawnee, OK 74804 $225,000 2,290 sq. ft. $98
2018-03-21 Single Family Historical 2130 Broadway Shawnee, OK 74804 $258,500 3,964 sq. ft. $65
2018-03-20 Single Family Traditional 1840 Pennsylvania Avenue Shawnee, OK 74804 $319,000 3,738 sq. ft. 19,166 sq. ft. $85
2018-03-19 Single Family Traditional 31704 Westlake Road Shawnee, OK 74801 $169,900 1,883 sq. ft. 217,800 sq. ft. $90
2018-03-19 Single Family Traditional 20440 Valley View Road Shawnee, OK 74804 $57,900 1,745 sq. ft. 43,560 sq. ft. $33
2018-03-19 Single Family Traditional 2704 Crown Point Shawnee, OK 74804 $299,000 2,599 sq. ft. $115
2018-03-19 Single Family 18301 Sharon Road Shawnee, OK 74801 $285,000 1,872 sq. ft. 784,080 sq. ft. $152
2018-03-19 Single Family Ranch 4 Donna Lane Shawnee, OK 74801 $299,900 3,354 sq. ft. 98,881 sq. ft. $89
2018-03-19 Single Family Traditional 1113 Adeline Drive Shawnee, OK 74804 $214,500 1,788 sq. ft. $120
2018-03-19 Single Family Traditional 0 Brangus Road Shawnee, OK 74801 $189,000 1,576 sq. ft. $120
2018-03-19 Single Family Traditional 10 Jarrot Shawnee, OK 74801 $191,000 2,003 sq. ft. $95
2018-03-19 Single Family Traditional 4101 Chapman Shawnee, OK 74804 $153,900 1,949 sq. ft. $79
2018-03-19 Single Family Traditional 2212 Timbers Shawnee, OK 74804 $189,900 1,583 sq. ft. $120
2018-03-19 Single Family Contemporary 4305 Hyatt Shawnee, OK 74804 $212,000 1,771 sq. ft. $120
2018-03-19 Single Family Dallas; Traditional 1250 Troon Circle Shawnee, OK 74801 $208,000 1,650 sq. ft. $126
2018-03-19 Single Family 16509 Acme Shawnee, OK 74801 $159,000 1,960 sq. ft. 108,900 sq. ft. $81
2018-03-19 Single Family Dallas; Traditional 1908 Twisted Oak Shawnee, OK 74801 $167,000 1,442 sq. ft. $116
2018-03-19 Single Family Bungalow 2203 Ellis Drive Shawnee, OK 74804 $55,000 775 sq. ft. 39,640 sq. ft. $71
2018-03-19 Single Family Traditional 1622 Minnesota Shawnee, OK 74804 $150,000 1,993 sq. ft. $75
2018-03-19 Single Family Traditional 21 Sequoyah Boulevard Shawnee, OK 74801 $144,900 1,513 sq. ft. 9,583 sq. ft. $96
2018-03-19 Single Family Traditional 11 Rice Avenue Shawnee, OK 74804 $150,000 1,706 sq. ft. $88
2018-03-19 Single Family Traditional 501 Aydelotte Shawnee, OK 74801 $47,500 1,117 sq. ft. $43
2018-03-19 Single Family Traditional 1208 Windsor Place Shawnee, OK 74804 $147,500 1,323 sq. ft. $111
2018-03-19 Single Family Traditional 101 Butler Drive Shawnee, OK 74804 $98,000 1,622 sq. ft. 10,019 sq. ft. $60
2018-03-19 Single Family Traditional 202 Pesotum Shawnee, OK 74801 $69,900 1,226 sq. ft. $57
2018-03-05 Single Family Traditional 1505 Main Street Shawnee, OK 74801 $55,000 1,251 sq. ft. $44
2018-03-05 Single Family Traditional 3 Norwich Ct Shawnee, OK 74804 $173,000 1,687 sq. ft. $103
2018-03-02 Single Family Traditional 1922 Minnesota Shawnee, OK 74804 $127,000 1,456 sq. ft. $87
2018-03-02 Single Family Traditional 2202 Minnesota Street Shawnee, OK 74804 $299,000 4,237 sq. ft. $71
2018-03-01 Single Family Traditional 45401 Garretts Lake Road Shawnee, OK 74804 $129,900 1,665 sq. ft. 115,870 sq. ft. $78
2018-02-27 Single Family Ranch 303 Franklin Street Shawnee, OK 74804 $179,900 2,169 sq. ft. 14,331 sq. ft. $83
2018-02-26 Single Family Traditional 2301 Robinwood Place Shawnee, OK 74801 $369,900 3,999 sq. ft. 16,988 sq. ft. $92
2018-02-23 Single Family Old English/Tudor 826 Benedict Shawnee, OK 74801 $42,500 2,479 sq. ft. $17
2018-02-20 Single Family Contemporary 45534 Old Highway 9 Shawnee, OK 74802 $465,000 11,056 sq. ft. 871,200 sq. ft. $42
2018-02-20 Single Family Bungalow 15 Drummond Street Shawnee, OK 74801 $175,000 2,225 sq. ft. 12,632 sq. ft. $79
2018-02-16 Single Family Traditional 1708 Regency Court Shawnee, OK 74804 $224,640 1,872 sq. ft. $120
2018-02-16 Single Family Traditional 4508 Kellye Green Street Shawnee, OK 74804 $299,000 2,673 sq. ft. $112
2018-02-16 Single Family Traditional 2205 Bent Tree Drive Shawnee, OK 74802 $156,800 1,341 sq. ft. $117
2018-02-15 Single Family 4403 Bryant Via Shawnee, OK 74804 $279,900 2,536 sq. ft. $110
2018-02-12 Single Family Old English/Tudor 8 Cedar Creek Drive Shawnee, OK 74804 $237,500 2,700 sq. ft. 77,624 sq. ft. $88
2018-02-11 Single Family Traditional 1633 Pennsylvania Shawnee, OK 74804 $74,500 1,195 sq. ft. $62
2018-02-11 Single Family Traditional 711 Bdwy Shawnee, OK 74851 $85,000 1,166 sq. ft. $73
2018-02-08 Single Family Traditional 43503 Wolverine Shawnee, OK 74804 $210,000 1,887 sq. ft. 87,120 sq. ft. $111
2018-02-08 Single Family Bungalow 904 Walnut Shawnee, OK 74801 $35,000 882 sq. ft. $40
2018-02-07 Single Family Traditional 26 Fairview Shawnee, OK 74804 $159,900 2,034 sq. ft. $79
2018-02-06 Single Family Traditional 404 Franklin Shawnee, OK 74804 $169,900 2,531 sq. ft. $67
2018-02-06 Single Family Traditional 15066 Cedar Ridge Road Shawnee, OK 74801 $369,900 2,881 sq. ft. 43,560 sq. ft. $128
2018-02-03 Single Family Traditional 110 Jack Rabbit Drive Shawnee, OK 74804 $142,000 1,400 sq. ft. 54,450 sq. ft. $101
2018-02-01 Single Family Old English/Tudor 2306 Robinwood Place Shawnee, OK 74801 $334,900 3,870 sq. ft. $87
2018-02-01 Single Family Traditional 23 Sequoyah Boulevard Shawnee, OK 74801 $131,900 1,992 sq. ft. $66
2018-01-31 Single Family Ranch 12589 Big Sky Drive Shawnee, OK 74804 $899,900 4,788 sq. ft. 174,240 sq. ft. $188
2018-01-29 Single Family Ranch 3 Bettie Sue Shawnee, OK 74804 $185,000 1,952 sq. ft. 43,560 sq. ft. $95
2018-01-26 Single Family Traditional 1400 Berkshire Shawnee, OK 74804 $169,900 1,658 sq. ft. $102
2018-01-19 Single Family Traditional 2313 Pinehurst Court Shawnee, OK 74801 $305,000 3,255 sq. ft. $94
2018-01-19 Single Family Traditional 1605 Hunters Ridge Shawnee, OK 74804 $219,500 1,970 sq. ft. $111
2018-01-15 Single Family Traditional 35302 Clearpond Road Shawnee, OK 74801 $89,900 1,216 sq. ft. 217,800 sq. ft. $74
2018-01-11 Single Family Traditional 1307 Rickey Road Shawnee, OK 74801 $104,900 1,158 sq. ft. $91
2018-01-10 Single Family Traditional 43502 Wolverine Shawnee, OK 74804 $156,000 1,700 sq. ft. 36,590 sq. ft. $92
2018-01-10 Single Family Traditional 1319 Louisa Avenue Shawnee, OK 74801 $99,900 1,760 sq. ft. $57
2018-01-08 Single Family Traditional 12880 Acme Shawnee, OK 74804 $332,900 2,776 sq. ft. $120
2018-01-04 Single Family 43710 Benson Park Shawnee, OK 74801 $110,000 2,304 sq. ft. $48
2018-01-03 Single Family Bungalow 1137 Adeline Drive Shawnee, OK 74804 $189,900 1,638 sq. ft. $116
2018-01-02 Single Family Traditional 34304 Lake Road Shawnee, OK 74801 $199,500 1,734 sq. ft. 217,800 sq. ft. $115
2017-12-21 Single Family Traditional 4411 Aydelotte Shawnee, OK 74804 $129,000 1,794 sq. ft. $72
2017-11-28 Single Family Contemporary; Traditional 39665 Benson Park Road Shawnee, OK 74801 $800,000 4,266 sq. ft. 3,441,240 sq. ft. $188
2017-11-27 Single Family Traditional 311 Osage Shawnee, OK 74801 $45,900 1,108 sq. ft. $41
2017-11-27 Single Family Traditional 307 Osage Shawnee, OK 74801 $25,900 639 sq. ft. $41
2017-11-22 Single Family Traditional 19001 Charleston Loop Shawnee, OK 74801 $238,500 1,951 sq. ft. $122
2017-11-13 Single Family Traditional 2308 Lakeside Circle Shawnee, OK 74801 $399,000 4,722 sq. ft. $84
2017-11-12 Single Family Traditional 1601 Woodstock Shawnee, OK 74804 $244,999 2,080 sq. ft. $118
2017-11-12 Single Family Dallas 1811 Bryan Avenue Shawnee, OK 74804 $231,900 1,967 sq. ft. 108,900 sq. ft. $118
2017-11-03 Single Family Traditional 1510 Hunters Ridge Drive Shawnee, OK 74804 $198,000 1,763 sq. ft. $112
2017-10-19 Single Family Contemporary 132 Meadows Lane Shawnee, OK 74804 $142,000 1,712 sq. ft. $83
2017-10-13 Single Family Historical 102 Midland Street Shawnee, OK 74804 $255,000 3,114 sq. ft. 13,939 sq. ft. $82
2017-09-30 Single Family Traditional 21 Delaware Shawnee, OK 74801 $135,900 1,728 sq. ft. $79
2017-09-09 Single Family Bungalow 1132 Adeline Drive Shawnee, OK 74804 $199,500 1,717 sq. ft. $116
2017-09-06 Single Family Traditional 44310 Hardesty Shawnee, OK 74801 $239,900 1,404 sq. ft. 1,110,780 sq. ft. $171
2017-09-01 Single Family Traditional 1818 Philadelphia Shawnee, OK 74804 $82,500 1,788 sq. ft. $46
2017-09-01 Single Family Ranch 17501 Crosslin Shawnee, OK 74801 $169,999 2,079 sq. ft. 108,900 sq. ft. $82
2017-09-01 Single Family Traditional 2304 Robinwood Place Shawnee, OK 74801 $267,900 3,205 sq. ft. $84
2017-08-28 Single Family Traditional 1606 Windmill Ridge Shawnee, OK 74804 $419,900 3,694 sq. ft. $114
2017-08-17 Single Family Bungalow 203 Kimberly Avenue Shawnee, OK 74801 $34,000 1,134 sq. ft. $30
2017-08-15 Single Family Ranch 1421 Rickey Road Shawnee, OK 74801 $88,500 1,750 sq. ft. $51
2017-08-07 Single Family Traditional 46210 Garretts Lake Road Shawnee, OK 74804 $209,900 3,974 sq. ft. 43,560 sq. ft. $53
2017-07-14 Single Family Traditional 18849 Kelli Shawnee, OK 74801 $245,900 2,361 sq. ft. $104
2017-07-13 Single Family Traditional 929 Draper Shawnee, OK 74801 $12,000 800 sq. ft. $15
2017-05-23 Single Family Traditional 1112 Morning Side Shawnee, OK 74804 $174,000 1,703 sq. ft. $102
2017-05-23 Single Family Dallas 4604 Gracelann Shawnee, OK 74804 $298,800 2,600 sq. ft. $115
2017-01-06 Single Family Traditional 903 Mckinley Shawnee, OK 74801 $58,900 864 sq. ft. $68